sensor_id;sensor_type;location;lat;lon;timestamp;temperature;humidity
41344;DHT22;27089;50.022;7.604;2023-04-24T00:01:34;10.80;99.90
41344;DHT22;27089;50.022;7.604;2023-04-24T00:04:02;10.80;99.90
41344;DHT22;27089;50.022;7.604;2023-04-24T00:06:29;10.80;99.90
41344;DHT22;27089;50.022;7.604;2023-04-24T00:09:00;10.80;99.90
41344;DHT22;27089;50.022;7.604;2023-04-24T00:11:28;10.90;99.90
41344;DHT22;27089;50.022;7.604;2023-04-24T00:13:55;10.80;99.90
41344;DHT22;27089;50.022;7.604;2023-04-24T00:16:22;10.80;99.90
41344;DHT22;27089;50.022;7.604;2023-04-24T00:18:49;10.80;99.90
41344;DHT22;27089;50.022;7.604;2023-04-24T00:21:18;10.70;99.90
41344;DHT22;27089;50.022;7.604;2023-04-24T00:23:45;10.70;99.90
41344;DHT22;27089;50.022;7.604;2023-04-24T00:26:13;10.70;99.90
41344;DHT22;27089;50.022;7.604;2023-04-24T00:28:40;10.70;99.90
41344;DHT22;27089;50.022;7.604;2023-04-24T00:31:07;10.70;99.90
41344;DHT22;27089;50.022;7.604;2023-04-24T00:33:34;10.70;99.90
41344;DHT22;27089;50.022;7.604;2023-04-24T00:36:01;10.70;99.90
41344;DHT22;27089;50.022;7.604;2023-04-24T00:38:28;10.70;99.90
41344;DHT22;27089;50.022;7.604;2023-04-24T00:40:55;10.70;99.90
41344;DHT22;27089;50.022;7.604;2023-04-24T00:43:24;10.60;99.90
41344;DHT22;27089;50.022;7.604;2023-04-24T00:45:51;10.50;99.90
41344;DHT22;27089;50.022;7.604;2023-04-24T00:48:18;10.50;99.90
41344;DHT22;27089;50.022;7.604;2023-04-24T00:50:46;10.50;99.90
41344;DHT22;27089;50.022;7.604;2023-04-24T00:53:13;10.50;99.90
41344;DHT22;27089;50.022;7.604;2023-04-24T00:55:40;10.40;99.90
41344;DHT22;27089;50.022;7.604;2023-04-24T00:58:07;10.40;99.90
41344;DHT22;27089;50.022;7.604;2023-04-24T01:00:36;10.40;99.90
41344;DHT22;27089;50.022;7.604;2023-04-24T01:03:04;10.30;99.90
41344;DHT22;27089;50.022;7.604;2023-04-24T01:05:32;10.30;99.90
41344;DHT22;27089;50.022;7.604;2023-04-24T01:07:59;10.30;99.90
41344;DHT22;27089;50.022;7.604;2023-04-24T01:10:29;10.30;99.90
41344;DHT22;27089;50.022;7.604;2023-04-24T01:12:58;10.30;99.90
41344;DHT22;27089;50.022;7.604;2023-04-24T01:15:25;10.30;99.90
41344;DHT22;27089;50.022;7.604;2023-04-24T01:17:54;10.20;99.90
41344;DHT22;27089;50.022;7.604;2023-04-24T01:20:21;10.10;99.90
41344;DHT22;27089;50.022;7.604;2023-04-24T01:22:51;10.10;99.90
41344;DHT22;27089;50.022;7.604;2023-04-24T01:25:18;10.10;99.90
41344;DHT22;27089;50.022;7.604;2023-04-24T01:27:46;10.00;99.90
41344;DHT22;27089;50.022;7.604;2023-04-24T01:30:13;10.00;99.90
41344;DHT22;27089;50.022;7.604;2023-04-24T01:32:42;10.00;99.90
41344;DHT22;27089;50.022;7.604;2023-04-24T01:35:10;10.00;99.90
41344;DHT22;27089;50.022;7.604;2023-04-24T01:37:37;10.00;99.90
41344;DHT22;27089;50.022;7.604;2023-04-24T01:40:07;9.90;99.90
41344;DHT22;27089;50.022;7.604;2023-04-24T01:42:34;9.90;99.90
41344;DHT22;27089;50.022;7.604;2023-04-24T01:45:03;9.90;99.90
41344;DHT22;27089;50.022;7.604;2023-04-24T01:47:31;9.90;99.90
41344;DHT22;27089;50.022;7.604;2023-04-24T01:49:58;9.90;99.90
41344;DHT22;27089;50.022;7.604;2023-04-24T01:52:25;9.90;99.90
41344;DHT22;27089;50.022;7.604;2023-04-24T01:54:54;9.90;99.90
41344;DHT22;27089;50.022;7.604;2023-04-24T01:57:23;9.90;99.90
41344;DHT22;27089;50.022;7.604;2023-04-24T01:59:50;9.90;99.90
41344;DHT22;27089;50.022;7.604;2023-04-24T02:02:17;9.90;99.90
41344;DHT22;27089;50.022;7.604;2023-04-24T02:04:46;9.90;99.90
41344;DHT22;27089;50.022;7.604;2023-04-24T02:07:13;9.90;99.90
41344;DHT22;27089;50.022;7.604;2023-04-24T02:09:40;9.90;99.90
41344;DHT22;27089;50.022;7.604;2023-04-24T02:12:07;9.90;99.90
41344;DHT22;27089;50.022;7.604;2023-04-24T02:14:36;9.90;99.90
41344;DHT22;27089;50.022;7.604;2023-04-24T02:17:03;9.90;99.90
41344;DHT22;27089;50.022;7.604;2023-04-24T02:19:30;9.90;99.90
41344;DHT22;27089;50.022;7.604;2023-04-24T02:21:57;9.80;99.90
41344;DHT22;27089;50.022;7.604;2023-04-24T02:24:24;9.80;99.90
41344;DHT22;27089;50.022;7.604;2023-04-24T02:26:51;9.80;99.90
41344;DHT22;27089;50.022;7.604;2023-04-24T02:29:18;9.80;99.90
41344;DHT22;27089;50.022;7.604;2023-04-24T02:31:46;9.70;99.90
41344;DHT22;27089;50.022;7.604;2023-04-24T02:34:13;9.70;99.90
41344;DHT22;27089;50.022;7.604;2023-04-24T02:36:40;9.70;99.90
41344;DHT22;27089;50.022;7.604;2023-04-24T02:39:07;9.70;99.90
41344;DHT22;27089;50.022;7.604;2023-04-24T02:41:34;9.60;99.90
41344;DHT22;27089;50.022;7.604;2023-04-24T02:44:01;9.60;99.90
41344;DHT22;27089;50.022;7.604;2023-04-24T02:46:28;9.50;99.90
41344;DHT22;27089;50.022;7.604;2023-04-24T02:48:56;9.50;99.90
41344;DHT22;27089;50.022;7.604;2023-04-24T02:51:23;9.40;99.90
41344;DHT22;27089;50.022;7.604;2023-04-24T02:53:50;9.30;99.90
41344;DHT22;27089;50.022;7.604;2023-04-24T02:56:17;9.20;99.90
41344;DHT22;27089;50.022;7.604;2023-04-24T02:58:44;9.10;99.90
41344;DHT22;27089;50.022;7.604;2023-04-24T03:01:11;9.00;99.90
41344;DHT22;27089;50.022;7.604;2023-04-24T03:03:38;8.90;99.90
41344;DHT22;27089;50.022;7.604;2023-04-24T03:06:07;8.90;99.90
41344;DHT22;27089;50.022;7.604;2023-04-24T03:08:34;8.80;99.90
41344;DHT22;27089;50.022;7.604;2023-04-24T03:11:01;8.80;99.90
41344;DHT22;27089;50.022;7.604;2023-04-24T03:13:28;8.70;99.90
41344;DHT22;27089;50.022;7.604;2023-04-24T03:15:55;8.60;99.90
41344;DHT22;27089;50.022;7.604;2023-04-24T03:18:22;8.50;99.90
41344;DHT22;27089;50.022;7.604;2023-04-24T03:20:49;8.50;99.90
41344;DHT22;27089;50.022;7.604;2023-04-24T03:23:18;8.30;99.90
41344;DHT22;27089;50.022;7.604;2023-04-24T03:25:45;8.20;99.90
41344;DHT22;27089;50.022;7.604;2023-04-24T03:28:13;8.00;99.90
41344;DHT22;27089;50.022;7.604;2023-04-24T03:30:40;8.00;99.90
41344;DHT22;27089;50.022;7.604;2023-04-24T03:33:07;7.90;99.90
41344;DHT22;27089;50.022;7.604;2023-04-24T03:35:35;7.80;99.90
41344;DHT22;27089;50.022;7.604;2023-04-24T03:38:02;7.70;99.90
41344;DHT22;27089;50.022;7.604;2023-04-24T03:40:31;7.60;99.90
41344;DHT22;27089;50.022;7.604;2023-04-24T03:42:59;7.50;99.90
41344;DHT22;27089;50.022;7.604;2023-04-24T03:45:26;7.40;99.90
41344;DHT22;27089;50.022;7.604;2023-04-24T03:47:53;7.40;99.90
41344;DHT22;27089;50.022;7.604;2023-04-24T03:50:20;7.30;99.90
41344;DHT22;27089;50.022;7.604;2023-04-24T03:52:47;7.20;99.90
41344;DHT22;27089;50.022;7.604;2023-04-24T03:55:14;7.10;99.90
41344;DHT22;27089;50.022;7.604;2023-04-24T03:57:43;7.10;99.90
41344;DHT22;27089;50.022;7.604;2023-04-24T04:00:11;7.10;99.90
41344;DHT22;27089;50.022;7.604;2023-04-24T04:02:39;7.10;99.90
41344;DHT22;27089;50.022;7.604;2023-04-24T04:05:07;7.00;99.90
41344;DHT22;27089;50.022;7.604;2023-04-24T04:07:34;7.00;99.90
41344;DHT22;27089;50.022;7.604;2023-04-24T04:10:01;7.00;99.90
41344;DHT22;27089;50.022;7.604;2023-04-24T04:12:28;7.00;99.90
41344;DHT22;27089;50.022;7.604;2023-04-24T04:14:57;7.00;99.90
41344;DHT22;27089;50.022;7.604;2023-04-24T04:17:24;7.00;99.90
41344;DHT22;27089;50.022;7.604;2023-04-24T04:19:51;7.10;99.90
41344;DHT22;27089;50.022;7.604;2023-04-24T04:22:18;7.20;99.90
41344;DHT22;27089;50.022;7.604;2023-04-24T04:24:45;7.30;99.90
41344;DHT22;27089;50.022;7.604;2023-04-24T04:27:12;7.40;99.90
41344;DHT22;27089;50.022;7.604;2023-04-24T04:29:39;7.40;99.90
41344;DHT22;27089;50.022;7.604;2023-04-24T04:32:08;7.40;99.90
41344;DHT22;27089;50.022;7.604;2023-04-24T04:34:35;7.50;99.90
41344;DHT22;27089;50.022;7.604;2023-04-24T04:37:03;7.50;99.90
41344;DHT22;27089;50.022;7.604;2023-04-24T04:39:30;7.60;99.90
41344;DHT22;27089;50.022;7.604;2023-04-24T04:41:57;7.60;99.90
41344;DHT22;27089;50.022;7.604;2023-04-24T04:44:24;7.70;99.90
41344;DHT22;27089;50.022;7.604;2023-04-24T04:46:51;7.70;99.90
41344;DHT22;27089;50.022;7.604;2023-04-24T04:49:23;7.70;99.90
41344;DHT22;27089;50.022;7.604;2023-04-24T04:51:50;7.70;99.90
41344;DHT22;27089;50.022;7.604;2023-04-24T04:54:17;7.80;99.90
41344;DHT22;27089;50.022;7.604;2023-04-24T04:56:44;7.90;99.90
41344;DHT22;27089;50.022;7.604;2023-04-24T04:59:11;7.90;99.90
41344;DHT22;27089;50.022;7.604;2023-04-24T05:01:39;8.10;99.90
41344;DHT22;27089;50.022;7.604;2023-04-24T05:04:05;8.30;99.90
41344;DHT22;27089;50.022;7.604;2023-04-24T05:06:34;8.40;99.90
41344;DHT22;27089;50.022;7.604;2023-04-24T05:09:01;8.70;99.90
41344;DHT22;27089;50.022;7.604;2023-04-24T05:11:29;8.80;99.90
41344;DHT22;27089;50.022;7.604;2023-04-24T05:13:56;8.80;99.90
41344;DHT22;27089;50.022;7.604;2023-04-24T05:16:23;8.70;99.90
41344;DHT22;27089;50.022;7.604;2023-04-24T05:18:50;8.70;99.90
41344;DHT22;27089;50.022;7.604;2023-04-24T05:21:17;8.70;99.90
41344;DHT22;27089;50.022;7.604;2023-04-24T05:23:45;8.90;99.90
41344;DHT22;27089;50.022;7.604;2023-04-24T05:26:13;9.00;99.90
41344;DHT22;27089;50.022;7.604;2023-04-24T05:28:41;9.20;99.90
41344;DHT22;27089;50.022;7.604;2023-04-24T05:31:08;9.60;99.90
41344;DHT22;27089;50.022;7.604;2023-04-24T05:33:35;9.90;99.90
41344;DHT22;27089;50.022;7.604;2023-04-24T05:36:02;10.20;99.90
41344;DHT22;27089;50.022;7.604;2023-04-24T05:38:29;10.20;99.90
41344;DHT22;27089;50.022;7.604;2023-04-24T05:40:58;10.00;99.90
41344;DHT22;27089;50.022;7.604;2023-04-24T05:43:25;9.80;99.90
41344;DHT22;27089;50.022;7.604;2023-04-24T05:45:52;9.60;99.90
41344;DHT22;27089;50.022;7.604;2023-04-24T05:48:19;9.50;99.90
41344;DHT22;27089;50.022;7.604;2023-04-24T05:50:47;9.30;99.90
41344;DHT22;27089;50.022;7.604;2023-04-24T05:53:15;9.20;99.90
41344;DHT22;27089;50.022;7.604;2023-04-24T05:55:42;9.20;99.90
41344;DHT22;27089;50.022;7.604;2023-04-24T05:58:11;9.20;99.90
41344;DHT22;27089;50.022;7.604;2023-04-24T06:00:38;9.30;99.90
41344;DHT22;27089;50.022;7.604;2023-04-24T06:03:08;9.30;99.90
41344;DHT22;27089;50.022;7.604;2023-04-24T06:05:35;9.40;99.90
41344;DHT22;27089;50.022;7.604;2023-04-24T06:08:02;9.40;99.90
41344;DHT22;27089;50.022;7.604;2023-04-24T06:10:29;9.30;99.90
41344;DHT22;27089;50.022;7.604;2023-04-24T06:12:57;9.30;99.90
41344;DHT22;27089;50.022;7.604;2023-04-24T06:15:28;9.20;99.90
41344;DHT22;27089;50.022;7.604;2023-04-24T06:17:56;9.20;99.90
41344;DHT22;27089;50.022;7.604;2023-04-24T06:20:23;9.20;99.90
41344;DHT22;27089;50.022;7.604;2023-04-24T06:22:50;9.20;99.90
41344;DHT22;27089;50.022;7.604;2023-04-24T06:25:17;9.10;99.90
41344;DHT22;27089;50.022;7.604;2023-04-24T06:27:44;9.00;99.90
41344;DHT22;27089;50.022;7.604;2023-04-24T06:30:12;9.00;99.90
41344;DHT22;27089;50.022;7.604;2023-04-24T06:32:41;8.90;99.90
41344;DHT22;27089;50.022;7.604;2023-04-24T06:35:08;8.80;99.90
41344;DHT22;27089;50.022;7.604;2023-04-24T06:37:37;9.00;99.90
41344;DHT22;27089;50.022;7.604;2023-04-24T06:40:05;11.70;99.90
41344;DHT22;27089;50.022;7.604;2023-04-24T06:42:32;12.60;99.90
41344;DHT22;27089;50.022;7.604;2023-04-24T06:45:01;12.90;99.90
41344;DHT22;27089;50.022;7.604;2023-04-24T06:47:28;13.80;99.90
41344;DHT22;27089;50.022;7.604;2023-04-24T06:49:57;15.20;99.90
41344;DHT22;27089;50.022;7.604;2023-04-24T06:52:24;15.10;99.90
41344;DHT22;27089;50.022;7.604;2023-04-24T06:54:51;14.30;99.90
41344;DHT22;27089;50.022;7.604;2023-04-24T06:57:18;13.50;99.90
41344;DHT22;27089;50.022;7.604;2023-04-24T06:59:46;13.60;99.90
41344;DHT22;27089;50.022;7.604;2023-04-24T07:02:13;13.20;99.90
41344;DHT22;27089;50.022;7.604;2023-04-24T07:04:40;12.40;99.90
41344;DHT22;27089;50.022;7.604;2023-04-24T07:07:08;11.70;99.90
41344;DHT22;27089;50.022;7.604;2023-04-24T07:09:38;11.40;99.90
41344;DHT22;27089;50.022;7.604;2023-04-24T07:12:07;11.70;99.90
41344;DHT22;27089;50.022;7.604;2023-04-24T07:14:36;12.20;99.90
41344;DHT22;27089;50.022;7.604;2023-04-24T07:17:03;13.40;99.90
41344;DHT22;27089;50.022;7.604;2023-04-24T07:19:31;13.80;99.90
41344;DHT22;27089;50.022;7.604;2023-04-24T07:21:58;14.00;99.90
41344;DHT22;27089;50.022;7.604;2023-04-24T07:24:26;15.70;99.90
41344;DHT22;27089;50.022;7.604;2023-04-24T07:26:54;18.10;99.90
41344;DHT22;27089;50.022;7.604;2023-04-24T07:29:22;18.20;99.90
41344;DHT22;27089;50.022;7.604;2023-04-24T07:31:49;17.10;99.90
41344;DHT22;27089;50.022;7.604;2023-04-24T07:34:16;16.30;99.90
41344;DHT22;27089;50.022;7.604;2023-04-24T07:36:43;16.00;99.90
41344;DHT22;27089;50.022;7.604;2023-04-24T07:39:10;16.00;99.90
41344;DHT22;27089;50.022;7.604;2023-04-24T07:41:39;16.50;99.90
41344;DHT22;27089;50.022;7.604;2023-04-24T07:44:06;17.00;99.90
41344;DHT22;27089;50.022;7.604;2023-04-24T07:46:33;16.40;99.90
41344;DHT22;27089;50.022;7.604;2023-04-24T07:49:00;15.80;99.90
41344;DHT22;27089;50.022;7.604;2023-04-24T07:51:28;14.70;99.90
41344;DHT22;27089;50.022;7.604;2023-04-24T07:53:56;14.10;99.90
41344;DHT22;27089;50.022;7.604;2023-04-24T07:56:23;13.50;99.90
41344;DHT22;27089;50.022;7.604;2023-04-24T07:58:52;13.10;99.90
41344;DHT22;27089;50.022;7.604;2023-04-24T08:01:19;12.70;99.90
41344;DHT22;27089;50.022;7.604;2023-04-24T08:03:46;12.50;99.90
41344;DHT22;27089;50.022;7.604;2023-04-24T08:06:13;12.40;99.90
41344;DHT22;27089;50.022;7.604;2023-04-24T08:08:40;12.60;99.90
41344;DHT22;27089;50.022;7.604;2023-04-24T08:11:07;12.90;99.90
41344;DHT22;27089;50.022;7.604;2023-04-24T08:13:34;12.80;99.90
41344;DHT22;27089;50.022;7.604;2023-04-24T08:16:02;12.70;99.90
41344;DHT22;27089;50.022;7.604;2023-04-24T08:18:29;12.20;99.90
41344;DHT22;27089;50.022;7.604;2023-04-24T08:20:56;11.80;99.90
41344;DHT22;27089;50.022;7.604;2023-04-24T08:23:26;11.30;99.90
41344;DHT22;27089;50.022;7.604;2023-04-24T08:25:54;11.10;99.90
41344;DHT22;27089;50.022;7.604;2023-04-24T08:28:22;10.90;99.90
41344;DHT22;27089;50.022;7.604;2023-04-24T08:30:49;10.80;99.90
41344;DHT22;27089;50.022;7.604;2023-04-24T08:33:23;10.60;99.90
41344;DHT22;27089;50.022;7.604;2023-04-24T08:35:50;10.50;99.90
41344;DHT22;27089;50.022;7.604;2023-04-24T08:38:17;10.50;99.90
41344;DHT22;27089;50.022;7.604;2023-04-24T08:40:44;10.60;99.90
41344;DHT22;27089;50.022;7.604;2023-04-24T08:43:12;10.80;99.90
41344;DHT22;27089;50.022;7.604;2023-04-24T08:45:40;10.90;99.90
41344;DHT22;27089;50.022;7.604;2023-04-24T08:48:07;11.00;99.90
41344;DHT22;27089;50.022;7.604;2023-04-24T08:50:37;11.10;99.90
41344;DHT22;27089;50.022;7.604;2023-04-24T08:53:06;11.10;99.90
41344;DHT22;27089;50.022;7.604;2023-04-24T08:55:34;11.30;99.90
41344;DHT22;27089;50.022;7.604;2023-04-24T08:58:01;11.40;99.90
41344;DHT22;27089;50.022;7.604;2023-04-24T09:00:29;11.60;99.90
41344;DHT22;27089;50.022;7.604;2023-04-24T09:02:56;11.70;99.90
41344;DHT22;27089;50.022;7.604;2023-04-24T09:05:24;11.70;99.90
41344;DHT22;27089;50.022;7.604;2023-04-24T09:07:54;11.50;99.90
41344;DHT22;27089;50.022;7.604;2023-04-24T09:10:23;11.30;99.90
41344;DHT22;27089;50.022;7.604;2023-04-24T09:12:51;11.20;99.90
41344;DHT22;27089;50.022;7.604;2023-04-24T09:15:18;11.30;99.90
41344;DHT22;27089;50.022;7.604;2023-04-24T09:17:46;11.30;99.90
41344;DHT22;27089;50.022;7.604;2023-04-24T09:20:13;11.20;99.90
41344;DHT22;27089;50.022;7.604;2023-04-24T09:22:41;11.30;99.90
41344;DHT22;27089;50.022;7.604;2023-04-24T09:25:10;11.20;99.90
41344;DHT22;27089;50.022;7.604;2023-04-24T09:27:42;11.10;99.90
41344;DHT22;27089;50.022;7.604;2023-04-24T09:30:11;11.10;99.90
41344;DHT22;27089;50.022;7.604;2023-04-24T09:32:38;11.20;99.90
41344;DHT22;27089;50.022;7.604;2023-04-24T09:35:07;11.20;99.90
41344;DHT22;27089;50.022;7.604;2023-04-24T09:37:36;11.10;99.90
41344;DHT22;27089;50.022;7.604;2023-04-24T09:40:16;11.10;99.90
41344;DHT22;27089;50.022;7.604;2023-04-24T09:42:51;11.00;99.90
41344;DHT22;27089;50.022;7.604;2023-04-24T09:45:18;10.90;99.90
41344;DHT22;27089;50.022;7.604;2023-04-24T09:47:45;10.90;99.90
41344;DHT22;27089;50.022;7.604;2023-04-24T09:50:14;11.10;99.90
41344;DHT22;27089;50.022;7.604;2023-04-24T09:52:43;12.10;99.90
41344;DHT22;27089;50.022;7.604;2023-04-24T09:55:11;13.30;99.90
41344;DHT22;27089;50.022;7.604;2023-04-24T09:57:49;14.40;99.90
41344;DHT22;27089;50.022;7.604;2023-04-24T10:00:22;14.70;99.90
41344;DHT22;27089;50.022;7.604;2023-04-24T10:02:51;14.80;99.90
41344;DHT22;27089;50.022;7.604;2023-04-24T10:05:23;15.50;99.90
41344;DHT22;27089;50.022;7.604;2023-04-24T10:07:50;16.50;99.90
41344;DHT22;27089;50.022;7.604;2023-04-24T10:10:18;17.30;99.90
41344;DHT22;27089;50.022;7.604;2023-04-24T10:12:47;17.70;99.90
41344;DHT22;27089;50.022;7.604;2023-04-24T10:15:15;18.00;99.90
41344;DHT22;27089;50.022;7.604;2023-04-24T10:17:47;17.40;99.90
41344;DHT22;27089;50.022;7.604;2023-04-24T10:20:18;16.70;99.90
41344;DHT22;27089;50.022;7.604;2023-04-24T10:22:48;16.90;99.90
41344;DHT22;27089;50.022;7.604;2023-04-24T10:25:17;17.50;99.90
41344;DHT22;27089;50.022;7.604;2023-04-24T10:27:46;17.90;99.90
41344;DHT22;27089;50.022;7.604;2023-04-24T10:30:15;18.00;99.90
41344;DHT22;27089;50.022;7.604;2023-04-24T10:32:43;17.90;99.90
41344;DHT22;27089;50.022;7.604;2023-04-24T10:35:11;17.50;99.90
41344;DHT22;27089;50.022;7.604;2023-04-24T10:37:42;17.10;99.90
41344;DHT22;27089;50.022;7.604;2023-04-24T10:40:12;17.00;99.90
41344;DHT22;27089;50.022;7.604;2023-04-24T10:42:42;16.90;99.90
41344;DHT22;27089;50.022;7.604;2023-04-24T10:45:17;16.60;99.90
41344;DHT22;27089;50.022;7.604;2023-04-24T10:48:02;16.60;99.90
41344;DHT22;27089;50.022;7.604;2023-04-24T10:50:42;16.40;99.90
41344;DHT22;27089;50.022;7.604;2023-04-24T10:53:15;16.10;99.90
41344;DHT22;27089;50.022;7.604;2023-04-24T10:55:47;15.40;99.90
41344;DHT22;27089;50.022;7.604;2023-04-24T10:58:14;14.60;99.90
41344;DHT22;27089;50.022;7.604;2023-04-24T11:00:44;13.90;99.90
41344;DHT22;27089;50.022;7.604;2023-04-24T11:03:26;13.30;99.90
41344;DHT22;27089;50.022;7.604;2023-04-24T11:05:56;13.00;99.90
41344;DHT22;27089;50.022;7.604;2023-04-24T11:08:26;13.10;99.90
41344;DHT22;27089;50.022;7.604;2023-04-24T11:11:09;13.50;99.90
41344;DHT22;27089;50.022;7.604;2023-04-24T11:14:02;13.70;99.90
41344;DHT22;27089;50.022;7.604;2023-04-24T11:16:32;13.80;99.90
41344;DHT22;27089;50.022;7.604;2023-04-24T11:19:05;13.70;99.90
41344;DHT22;27089;50.022;7.604;2023-04-24T11:21:39;13.90;99.90
41344;DHT22;27089;50.022;7.604;2023-04-24T11:24:27;13.80;99.90
41344;DHT22;27089;50.022;7.604;2023-04-24T11:26:55;13.40;99.90
41344;DHT22;27089;50.022;7.604;2023-04-24T11:29:23;13.10;99.90
41344;DHT22;27089;50.022;7.604;2023-04-24T11:35:02;12.80;99.90
41344;DHT22;27089;50.022;7.604;2023-04-24T11:37:34;12.90;99.90
41344;DHT22;27089;50.022;7.604;2023-04-24T11:40:02;12.90;99.90
41344;DHT22;27089;50.022;7.604;2023-04-24T11:42:34;13.30;99.90
41344;DHT22;27089;50.022;7.604;2023-04-24T11:45:01;13.70;99.90
41344;DHT22;27089;50.022;7.604;2023-04-24T11:47:35;13.70;99.90
41344;DHT22;27089;50.022;7.604;2023-04-24T11:50:03;13.60;99.90
41344;DHT22;27089;50.022;7.604;2023-04-24T11:52:30;13.30;99.90
41344;DHT22;27089;50.022;7.604;2023-04-24T11:54:58;13.00;99.90
41344;DHT22;27089;50.022;7.604;2023-04-24T11:57:26;12.70;99.90
41344;DHT22;27089;50.022;7.604;2023-04-24T11:59:54;12.60;99.90
41344;DHT22;27089;50.022;7.604;2023-04-24T12:02:22;12.50;99.90
41344;DHT22;27089;50.022;7.604;2023-04-24T12:04:51;12.60;99.90
41344;DHT22;27089;50.022;7.604;2023-04-24T12:07:18;12.80;99.90
41344;DHT22;27089;50.022;7.604;2023-04-24T12:09:47;13.10;99.90
41344;DHT22;27089;50.022;7.604;2023-04-24T12:12:16;13.50;99.90
41344;DHT22;27089;50.022;7.604;2023-04-24T12:14:53;14.00;99.90
41344;DHT22;27089;50.022;7.604;2023-04-24T12:17:24;14.40;99.90
41344;DHT22;27089;50.022;7.604;2023-04-24T12:19:58;14.60;99.90
41344;DHT22;27089;50.022;7.604;2023-04-24T12:22:26;14.40;99.90
41344;DHT22;27089;50.022;7.604;2023-04-24T12:25:01;14.00;99.90
41344;DHT22;27089;50.022;7.604;2023-04-24T12:27:31;13.40;99.90
41344;DHT22;27089;50.022;7.604;2023-04-24T12:30:02;12.90;99.90
41344;DHT22;27089;50.022;7.604;2023-04-24T12:32:29;12.50;99.90
41344;DHT22;27089;50.022;7.604;2023-04-24T12:34:58;12.30;99.90
41344;DHT22;27089;50.022;7.604;2023-04-24T12:37:26;12.30;99.90
41344;DHT22;27089;50.022;7.604;2023-04-24T12:40:00;12.40;99.90
41344;DHT22;27089;50.022;7.604;2023-04-24T12:42:28;12.70;99.90
41344;DHT22;27089;50.022;7.604;2023-04-24T12:44:59;13.20;99.90
41344;DHT22;27089;50.022;7.604;2023-04-24T12:47:27;13.60;99.90
41344;DHT22;27089;50.022;7.604;2023-04-24T12:49:54;13.90;99.90
41344;DHT22;27089;50.022;7.604;2023-04-24T12:52:23;13.90;99.90
41344;DHT22;27089;50.022;7.604;2023-04-24T12:54:52;13.60;99.90
41344;DHT22;27089;50.022;7.604;2023-04-24T12:57:20;13.30;99.90
41344;DHT22;27089;50.022;7.604;2023-04-24T12:59:47;12.90;99.90
41344;DHT22;27089;50.022;7.604;2023-04-24T13:02:14;12.70;99.90
41344;DHT22;27089;50.022;7.604;2023-04-24T13:04:44;12.50;99.90
41344;DHT22;27089;50.022;7.604;2023-04-24T13:07:11;12.40;99.90
41344;DHT22;27089;50.022;7.604;2023-04-24T13:09:41;12.50;99.90
41344;DHT22;27089;50.022;7.604;2023-04-24T13:12:09;12.70;99.90
41344;DHT22;27089;50.022;7.604;2023-04-24T13:14:36;12.90;99.90
41344;DHT22;27089;50.022;7.604;2023-04-24T13:17:04;13.00;99.90
41344;DHT22;27089;50.022;7.604;2023-04-24T13:19:35;13.00;99.90
41344;DHT22;27089;50.022;7.604;2023-04-24T13:22:03;12.90;99.90
41344;DHT22;27089;50.022;7.604;2023-04-24T13:24:31;12.70;99.90
41344;DHT22;27089;50.022;7.604;2023-04-24T13:27:00;12.70;99.90
41344;DHT22;27089;50.022;7.604;2023-04-24T13:29:29;12.90;99.90
41344;DHT22;27089;50.022;7.604;2023-04-24T13:31:56;13.10;99.90
41344;DHT22;27089;50.022;7.604;2023-04-24T13:34:25;13.40;99.90
41344;DHT22;27089;50.022;7.604;2023-04-24T13:36:54;13.70;99.90
41344;DHT22;27089;50.022;7.604;2023-04-24T13:39:21;13.90;99.90
41344;DHT22;27089;50.022;7.604;2023-04-24T13:41:48;14.00;99.90
41344;DHT22;27089;50.022;7.604;2023-04-24T13:44:18;13.90;99.90
41344;DHT22;27089;50.022;7.604;2023-04-24T13:46:47;13.80;99.90
41344;DHT22;27089;50.022;7.604;2023-04-24T13:49:14;13.80;99.90
41344;DHT22;27089;50.022;7.604;2023-04-24T13:51:42;14.00;99.90
41344;DHT22;27089;50.022;7.604;2023-04-24T13:54:09;14.20;99.90
41344;DHT22;27089;50.022;7.604;2023-04-24T13:56:36;14.20;99.90
41344;DHT22;27089;50.022;7.604;2023-04-24T13:59:03;14.20;99.90
41344;DHT22;27089;50.022;7.604;2023-04-24T14:01:32;14.20;99.90
41344;DHT22;27089;50.022;7.604;2023-04-24T14:04:00;14.30;99.90
41344;DHT22;27089;50.022;7.604;2023-04-24T14:06:27;14.40;99.90
41344;DHT22;27089;50.022;7.604;2023-04-24T14:08:54;14.60;99.90
41344;DHT22;27089;50.022;7.604;2023-04-24T14:11:21;14.60;99.90
41344;DHT22;27089;50.022;7.604;2023-04-24T14:13:49;14.70;99.90
41344;DHT22;27089;50.022;7.604;2023-04-24T14:16:16;14.60;99.90
41344;DHT22;27089;50.022;7.604;2023-04-24T14:18:44;14.70;99.90
41344;DHT22;27089;50.022;7.604;2023-04-24T14:21:11;14.70;99.90
41344;DHT22;27089;50.022;7.604;2023-04-24T14:23:38;14.70;99.90
41344;DHT22;27089;50.022;7.604;2023-04-24T14:26:05;14.80;99.90
41344;DHT22;27089;50.022;7.604;2023-04-24T14:28:32;14.80;99.90
41344;DHT22;27089;50.022;7.604;2023-04-24T14:31:00;14.60;99.90
41344;DHT22;27089;50.022;7.604;2023-04-24T14:33:27;14.60;99.90
41344;DHT22;27089;50.022;7.604;2023-04-24T14:35:56;14.50;99.90
41344;DHT22;27089;50.022;7.604;2023-04-24T14:38:23;14.40;99.90
41344;DHT22;27089;50.022;7.604;2023-04-24T14:40:50;14.40;99.90
41344;DHT22;27089;50.022;7.604;2023-04-24T14:43:17;14.40;99.90
41344;DHT22;27089;50.022;7.604;2023-04-24T14:45:44;14.40;99.90
41344;DHT22;27089;50.022;7.604;2023-04-24T14:48:11;14.30;99.90
41344;DHT22;27089;50.022;7.604;2023-04-24T14:50:38;14.20;99.90
41344;DHT22;27089;50.022;7.604;2023-04-24T14:53:07;14.20;99.90
41344;DHT22;27089;50.022;7.604;2023-04-24T14:55:34;14.20;99.90
41344;DHT22;27089;50.022;7.604;2023-04-24T14:58:02;14.00;99.90
41344;DHT22;27089;50.022;7.604;2023-04-24T15:00:29;13.90;99.90
41344;DHT22;27089;50.022;7.604;2023-04-24T15:02:56;13.70;99.90
41344;DHT22;27089;50.022;7.604;2023-04-24T15:05:23;13.40;99.90
41344;DHT22;27089;50.022;7.604;2023-04-24T15:07:51;13.30;99.90
41344;DHT22;27089;50.022;7.604;2023-04-24T15:10:19;13.20;99.90
41344;DHT22;27089;50.022;7.604;2023-04-24T15:12:48;13.00;99.90
41344;DHT22;27089;50.022;7.604;2023-04-24T15:15:16;12.90;99.90
41344;DHT22;27089;50.022;7.604;2023-04-24T15:17:43;12.80;99.90
41344;DHT22;27089;50.022;7.604;2023-04-24T15:20:10;13.00;99.90
41344;DHT22;27089;50.022;7.604;2023-04-24T15:22:37;13.30;99.90
41344;DHT22;27089;50.022;7.604;2023-04-24T15:25:05;13.60;99.90
41344;DHT22;27089;50.022;7.604;2023-04-24T15:27:44;13.90;99.90
41344;DHT22;27089;50.022;7.604;2023-04-24T15:30:12;14.00;99.90
41344;DHT22;27089;50.022;7.604;2023-04-24T15:32:40;13.90;99.90
41344;DHT22;27089;50.022;7.604;2023-04-24T15:35:08;13.80;99.90
41344;DHT22;27089;50.022;7.604;2023-04-24T15:37:35;13.50;99.90
41344;DHT22;27089;50.022;7.604;2023-04-24T15:40:02;13.40;99.90
41344;DHT22;27089;50.022;7.604;2023-04-24T15:42:31;13.20;99.90
41344;DHT22;27089;50.022;7.604;2023-04-24T15:44:59;13.00;99.90